Terminal Aerodrome Forecast
Issued by NWS Boise, ID

Home | Current Version | Previous Version | Text Only | Print | Product List | Glossary On
Versions: 1 2 3 4 5 6 7 8 9 10 11 12 13 14 15 16 17 18 19 20 21 22 23 24 25 26
000
FTUS45 KBOI 032330
TAFBNO
TAF
KBNO 032330Z 0400/0424 26010KT P6SM VCSH SCT080 BKN100
      TEMPO 0403/0407 VRB25G40KT 5SM -SHRA HZ BKN080
     FM040700 VRB06KT P6SM FEW100
     FM041800 19010KT P6SM FEW100=

USA.gov is the U.S. government's official web portal to all federal, state and local government web resources and services.